createdAt,value
2023-05-12T00:00:37.191Z,26.33
2023-05-12T00:03:03.895Z,26.51
2023-05-12T00:05:30.516Z,26.16
2023-05-12T00:07:57.068Z,25.44
2023-05-12T00:10:23.606Z,25.30
2023-05-12T00:12:50.168Z,25.35
2023-05-12T00:15:16.704Z,24.96
2023-05-12T00:17:43.282Z,25.00
2023-05-12T00:20:09.937Z,24.80
2023-05-12T00:22:36.481Z,24.30
2023-05-12T00:25:03.066Z,24.12
2023-05-12T00:27:29.620Z,24.39
2023-05-12T00:29:56.176Z,23.55
2023-05-12T00:32:22.760Z,23.59
2023-05-12T00:34:49.371Z,22.85
2023-05-12T00:37:15.923Z,23.03
2023-05-12T00:39:42.466Z,22.39
2023-05-12T00:42:09.060Z,22.58
2023-05-12T00:44:35.589Z,22.19
2023-05-12T00:47:02.124Z,22.06
2023-05-12T00:49:28.674Z,21.35
2023-05-12T00:51:55.250Z,21.03
2023-05-12T00:54:21.789Z,20.93
2023-05-12T00:56:48.383Z,20.43
2023-05-12T00:59:14.941Z,20.76
2023-05-12T05:07:08.352Z,7.33
2023-05-12T05:09:36.429Z,7.12
2023-05-12T05:12:03.311Z,7.00
2023-05-12T05:14:29.842Z,6.58
2023-05-12T05:16:56.379Z,6.77
2023-05-12T05:19:35.242Z,6.32
2023-05-12T05:22:09.438Z,6.56
2023-05-12T05:24:35.988Z,6.57
2023-05-12T05:27:02.542Z,6.23
2023-05-12T05:29:29.118Z,6.30
2023-05-12T05:31:55.698Z,6.49
2023-05-12T05:34:22.352Z,6.55
2023-05-12T05:36:48.946Z,6.02
2023-05-12T05:39:15.513Z,6.22
2023-05-12T05:41:42.054Z,5.97
2023-05-12T05:44:08.623Z,5.98
2023-05-12T05:46:35.218Z,5.81
2023-05-12T05:49:01.792Z,5.78
2023-05-12T05:51:28.329Z,5.93
2023-05-12T05:53:54.862Z,5.62
2023-05-12T05:56:21.436Z,6.00
2023-05-12T05:58:47.971Z,5.65
2023-05-12T06:01:14.496Z,5.89
2023-05-12T06:03:41.111Z,5.97
2023-05-12T06:06:07.717Z,5.73
2023-05-12T06:08:34.261Z,5.51
2023-05-12T06:11:00.795Z,5.89
2023-05-12T06:13:27.325Z,5.80
2023-05-12T06:15:53.864Z,5.65
2023-05-12T06:18:20.431Z,5.22
2023-05-12T06:20:46.999Z,5.11
2023-05-12T06:23:13.556Z,4.88
2023-05-12T06:25:40.104Z,4.96
2023-05-12T06:28:06.691Z,4.81
2023-05-12T06:30:33.244Z,4.96
2023-05-12T06:32:59.870Z,4.87
2023-05-12T06:35:26.441Z,4.89
2023-05-12T06:37:52.980Z,5.06
2023-05-12T06:40:19.539Z,4.82
2023-05-12T06:42:46.130Z,4.79
2023-05-12T06:45:12.686Z,4.69
2023-05-12T06:47:39.270Z,4.68
2023-05-12T06:50:05.849Z,4.71
2023-05-12T06:52:32.404Z,4.69
2023-05-12T06:54:58.951Z,4.46
2023-05-12T06:57:25.497Z,4.37
2023-05-12T06:59:52.051Z,4.57
2023-05-12T07:02:18.581Z,4.40
2023-05-12T07:04:45.174Z,4.44
2023-05-12T07:07:11.716Z,4.54
2023-05-12T07:09:38.251Z,4.15
2023-05-12T07:12:04.798Z,4.00
2023-05-12T07:14:31.333Z,4.16
2023-05-12T07:16:57.893Z,3.94
2023-05-12T07:19:24.483Z,3.90
2023-05-12T07:21:51.037Z,4.04
2023-05-12T07:24:17.581Z,4.29
2023-05-12T07:26:44.149Z,4.15
2023-05-12T07:29:12.158Z,4.25
2023-05-12T07:31:40.306Z,4.03
2023-05-12T07:34:06.854Z,3.98
2023-05-12T07:36:33.401Z,3.99
2023-05-12T07:38:59.955Z,4.07
2023-05-12T07:41:26.502Z,4.27
2023-05-12T07:43:53.073Z,4.35
2023-05-12T07:46:19.617Z,4.26
2023-05-12T07:48:46.231Z,4.21
2023-05-12T07:51:12.774Z,3.82
2023-05-12T07:53:39.332Z,3.88
2023-05-12T07:56:05.876Z,4.00
2023-05-12T07:58:32.406Z,4.26
2023-05-12T08:00:58.961Z,4.30
2023-05-12T08:03:25.640Z,4.21
2023-05-12T08:05:52.283Z,4.74
2023-05-12T08:08:18.829Z,4.73
2023-05-12T08:10:45.379Z,4.93
2023-05-12T08:13:11.948Z,5.10
2023-05-12T08:15:38.498Z,5.32
2023-05-12T08:18:05.064Z,5.50
2023-05-12T08:20:31.687Z,5.71
2023-05-12T08:22:58.262Z,5.80
2023-05-12T08:25:24.788Z,5.73
2023-05-12T08:27:51.337Z,6.64
2023-05-12T08:30:17.903Z,6.28
2023-05-12T08:32:44.470Z,6.39
2023-05-12T08:35:11.059Z,6.56
2023-05-12T08:37:37.828Z,6.57
2023-05-12T08:40:04.461Z,6.82
2023-05-12T08:42:31.004Z,6.79
2023-05-12T08:44:57.549Z,6.95
2023-05-12T08:47:24.084Z,6.72
2023-05-12T08:49:52.449Z,6.64
2023-05-12T08:52:19.165Z,6.88
2023-05-12T08:54:55.420Z,7.05
2023-05-12T08:57:22.853Z,7.01
2023-05-12T08:59:49.384Z,7.15
2023-05-12T09:02:16.011Z,6.97
2023-05-12T09:04:42.730Z,7.31
2023-05-12T09:07:09.317Z,7.56
2023-05-12T09:09:35.859Z,7.10
2023-05-12T09:12:02.410Z,7.39
2023-05-12T09:14:28.978Z,7.51
2023-05-12T09:16:55.523Z,7.86
2023-05-12T09:19:22.064Z,7.62
2023-05-12T09:21:48.622Z,7.87
2023-05-12T09:24:15.178Z,7.57
2023-05-12T09:26:41.751Z,7.99
2023-05-12T09:29:08.731Z,6.92
2023-05-12T09:31:35.498Z,6.80
2023-05-12T09:34:02.068Z,6.58
2023-05-12T09:36:28.609Z,6.70
2023-05-12T09:38:55.149Z,6.34
2023-05-12T09:41:21.678Z,6.63
2023-05-12T09:43:48.210Z,6.09
2023-05-12T09:46:14.778Z,5.98
2023-05-12T09:48:41.339Z,4.61
2023-05-12T09:51:07.874Z,4.30
2023-05-12T09:53:34.435Z,3.92
2023-05-12T09:56:01.002Z,3.81
2023-05-12T09:58:27.609Z,3.62
2023-05-12T10:03:23.636Z,3.76
2023-05-12T10:05:50.173Z,3.47
2023-05-12T10:08:16.809Z,3.34
2023-05-12T10:10:43.337Z,3.25
2023-05-12T10:13:09.883Z,3.37
2023-05-12T10:15:36.423Z,3.50
2023-05-12T10:18:02.988Z,3.23
2023-05-12T10:20:29.609Z,3.09
2023-05-12T10:22:56.189Z,3.02
2023-05-12T10:25:22.875Z,2.75
2023-05-12T10:27:49.557Z,3.14
2023-05-12T10:30:16.127Z,3.15
2023-05-12T10:32:42.786Z,3.35
2023-05-12T10:35:09.476Z,3.16
2023-05-12T10:37:36.171Z,3.38
2023-05-12T10:40:02.733Z,3.57
2023-05-12T10:42:29.388Z,4.26
2023-05-12T10:44:55.922Z,4.54
2023-05-12T10:47:22.475Z,4.85
2023-05-12T10:49:49.001Z,5.67
2023-05-12T10:52:15.550Z,6.15
2023-05-12T10:54:42.083Z,6.04
2023-05-12T10:57:08.837Z,6.33
2023-05-12T10:59:36.095Z,6.59
2023-05-12T11:02:04.022Z,6.91
2023-05-12T11:04:31.698Z,7.09
2023-05-12T11:06:59.277Z,7.17
2023-05-12T11:09:27.071Z,7.52
2023-05-12T11:11:54.260Z,7.58
2023-05-12T11:14:20.879Z,8.01
2023-05-12T11:16:47.495Z,8.15
2023-05-12T11:19:14.114Z,8.26
2023-05-12T11:21:40.718Z,8.24
2023-05-12T11:24:07.255Z,7.66
2023-05-12T11:26:33.787Z,7.62
2023-05-12T11:29:00.324Z,8.06
2023-05-12T11:31:26.889Z,8.88
2023-05-12T11:34:04.622Z,9.34
2023-05-12T11:36:37.771Z,9.69
2023-05-12T11:39:04.316Z,10.08
2023-05-12T11:41:30.869Z,10.94
2023-05-12T11:43:57.421Z,13.63
2023-05-12T11:46:24.023Z,14.70
2023-05-12T11:48:50.639Z,15.56
2023-05-12T11:51:17.206Z,15.14
2023-05-12T11:53:43.774Z,15.03
2023-05-12T11:56:10.328Z,14.40
2023-05-12T11:58:36.881Z,14.29
2023-05-12T12:01:03.414Z,14.62
2023-05-12T12:03:30.081Z,14.30
2023-05-12T12:05:56.700Z,14.46
2023-05-12T12:08:23.287Z,14.54
2023-05-12T12:10:49.835Z,15.08
2023-05-12T12:13:16.660Z,15.02
2023-05-12T12:15:43.269Z,14.87
2023-05-12T12:18:09.899Z,14.81
2023-05-12T12:20:36.501Z,15.02
2023-05-12T12:23:03.063Z,14.64
2023-05-12T12:25:29.598Z,15.05
2023-05-12T12:27:56.139Z,14.41
2023-05-12T12:30:22.743Z,14.04
2023-05-12T12:32:49.304Z,13.96
2023-05-12T12:35:15.882Z,13.91
2023-05-12T12:37:42.429Z,13.20
2023-05-12T12:40:08.986Z,13.72
2023-05-12T12:42:35.529Z,14.18
2023-05-12T12:45:02.203Z,13.92
2023-05-12T12:47:28.816Z,13.57
2023-05-12T12:49:55.406Z,13.16
2023-05-12T12:52:21.950Z,12.79
2023-05-12T12:54:48.518Z,12.22
2023-05-12T12:57:15.087Z,11.60
2023-05-12T12:59:41.666Z,11.63
2023-05-12T13:02:08.271Z,11.99
2023-05-12T13:04:34.887Z,12.10
2023-05-12T13:07:01.458Z,11.72
2023-05-12T13:09:28.030Z,11.60
2023-05-12T13:11:54.567Z,11.58
2023-05-12T13:14:21.103Z,11.55
2023-05-12T13:16:47.666Z,11.37
2023-05-12T13:19:14.300Z,11.43
2023-05-12T13:21:40.885Z,10.99
2023-05-12T13:24:07.436Z,10.64
2023-05-12T13:26:33.980Z,10.55
2023-05-12T13:29:00.557Z,10.69
2023-05-12T13:31:27.284Z,10.62
2023-05-12T13:33:53.929Z,10.83
2023-05-12T13:36:20.494Z,10.66
2023-05-12T13:38:47.056Z,10.43
2023-05-12T13:41:13.613Z,9.68
2023-05-12T13:43:40.154Z,10.00
2023-05-12T13:46:06.736Z,10.37
2023-05-12T13:48:33.323Z,10.41
2023-05-12T13:50:59.881Z,10.41
2023-05-12T13:53:26.415Z,10.59
2023-05-12T13:55:52.959Z,10.41
2023-05-12T13:58:19.513Z,10.67
2023-05-12T14:00:46.046Z,11.15
2023-05-12T14:03:12.647Z,8.58
2023-05-12T14:05:39.280Z,6.81
2023-05-12T14:08:05.867Z,6.87
2023-05-12T14:10:32.420Z,7.08
2023-05-12T14:12:59.020Z,7.31
2023-05-12T14:15:36.098Z,7.10
2023-05-12T14:18:11.183Z,7.17
2023-05-12T14:20:37.745Z,7.52
2023-05-12T14:23:04.295Z,8.02
2023-05-12T14:25:30.864Z,7.72
2023-05-12T14:27:57.464Z,7.35
2023-05-12T14:30:24.044Z,6.89
2023-05-12T14:32:50.652Z,6.38
2023-05-12T14:35:17.188Z,6.67
2023-05-12T14:37:43.718Z,6.35
2023-05-12T14:40:10.275Z,6.86
2023-05-12T14:42:36.818Z,6.98
2023-05-12T14:45:03.366Z,7.33
2023-05-12T14:47:29.927Z,7.63
2023-05-12T14:49:56.518Z,8.25
2023-05-12T14:52:23.082Z,7.87
2023-05-12T14:54:49.673Z,7.82
2023-05-12T14:57:16.228Z,7.64
2023-05-12T14:59:42.767Z,7.35
2023-05-12T15:02:09.324Z,7.43
2023-05-12T15:04:35.854Z,7.94
2023-05-12T15:07:02.444Z,7.48
2023-05-12T15:09:28.980Z,7.67
2023-05-12T15:11:55.539Z,7.61
2023-05-12T15:14:22.115Z,6.42
2023-05-12T15:16:48.713Z,6.09
2023-05-12T15:19:15.371Z,6.49
2023-05-12T15:21:42.037Z,7.19
2023-05-12T15:24:08.587Z,6.76
2023-05-12T15:26:36.246Z,7.23
2023-05-12T15:29:04.039Z,7.05
2023-05-12T15:31:30.639Z,6.57
2023-05-12T15:33:57.234Z,6.55
2023-05-12T15:36:23.775Z,6.75
2023-05-12T15:38:50.308Z,6.02
2023-05-12T15:41:16.944Z,4.28
2023-05-12T15:43:43.515Z,4.65
2023-05-12T15:46:10.095Z,5.31
2023-05-12T15:48:36.629Z,6.15
2023-05-12T15:51:03.170Z,5.91
2023-05-12T15:53:29.702Z,5.65
2023-05-12T15:55:56.262Z,5.84
2023-05-12T15:58:22.801Z,5.45
2023-05-12T16:00:49.464Z,5.97
2023-05-12T16:03:16.184Z,5.79
2023-05-12T16:05:42.750Z,6.41
2023-05-12T16:08:09.275Z,6.59
2023-05-12T16:10:35.822Z,6.23
2023-05-12T16:13:02.374Z,6.46
2023-05-12T16:15:28.920Z,6.21
2023-05-12T16:17:55.540Z,6.33
2023-05-12T16:20:22.160Z,6.86
2023-05-12T16:22:48.717Z,6.42
2023-05-12T16:25:15.259Z,6.15
2023-05-12T16:27:41.772Z,6.32
2023-05-12T16:30:08.316Z,6.15
2023-05-12T16:32:34.969Z,6.52
2023-05-12T16:35:01.557Z,6.55
2023-05-12T16:37:28.102Z,6.30
2023-05-12T16:39:54.651Z,6.37
2023-05-12T16:42:21.189Z,6.51
2023-05-12T16:44:47.732Z,6.38
2023-05-12T16:47:14.280Z,6.45
2023-05-12T16:49:40.818Z,6.26
2023-05-12T16:52:07.364Z,6.29
2023-05-12T16:54:33.918Z,6.22
2023-05-12T16:57:00.484Z,6.51
2023-05-12T16:59:27.007Z,6.41
2023-05-12T17:01:53.572Z,5.90
2023-05-12T17:04:20.127Z,6.09
2023-05-12T17:06:46.672Z,5.96
2023-05-12T17:09:13.247Z,5.98
2023-05-12T17:11:39.797Z,6.01
2023-05-12T17:14:06.343Z,5.86
2023-05-12T17:16:32.984Z,5.24
2023-05-12T17:21:29.050Z,5.73
2023-05-12T17:23:55.599Z,5.55
2023-05-12T17:26:22.421Z,5.87
2023-05-12T17:28:49.000Z,5.78
2023-05-12T17:31:15.581Z,5.27
2023-05-12T17:33:42.429Z,5.64
2023-05-12T17:36:12.871Z,5.47
2023-05-12T17:38:39.981Z,5.20
2023-05-12T17:41:06.526Z,5.46
2023-05-12T17:43:33.051Z,5.44
2023-05-12T17:45:59.616Z,5.52
2023-05-12T17:48:26.169Z,5.75
2023-05-12T17:50:52.732Z,5.56
2023-05-12T17:53:19.256Z,5.71
2023-05-12T17:55:45.805Z,5.40
2023-05-12T17:58:12.338Z,5.48
2023-05-12T18:00:38.908Z,5.39
2023-05-12T18:03:05.579Z,5.56
2023-05-12T18:05:32.708Z,5.51
2023-05-12T18:08:00.327Z,5.85
2023-05-12T18:10:26.873Z,5.77
2023-05-12T18:12:54.858Z,5.99
2023-05-12T18:15:22.226Z,5.81
2023-05-12T18:17:48.918Z,5.88
2023-05-12T18:20:15.464Z,6.26
2023-05-12T18:22:41.988Z,6.33
2023-05-12T18:25:08.544Z,6.02
2023-05-12T18:27:35.092Z,6.27
2023-05-12T18:30:01.651Z,5.95
2023-05-12T18:32:28.235Z,6.44
2023-05-12T18:34:54.783Z,6.33
2023-05-12T18:37:21.796Z,6.25
2023-05-12T18:39:48.339Z,6.31
2023-05-12T18:42:14.872Z,6.56
2023-05-12T18:44:41.438Z,6.38
2023-05-12T18:47:07.986Z,6.82
2023-05-12T18:49:34.547Z,6.68
2023-05-12T18:52:01.066Z,6.92
2023-05-12T18:54:27.592Z,6.96
2023-05-12T18:56:54.144Z,7.00
2023-05-12T18:59:20.683Z,7.48
2023-05-12T19:01:47.313Z,7.26
2023-05-12T19:04:13.903Z,7.53
2023-05-12T19:06:40.428Z,7.42
2023-05-12T19:09:06.989Z,7.94
2023-05-12T19:11:33.560Z,6.97
2023-05-12T19:14:00.108Z,5.74
2023-05-12T19:16:26.657Z,5.73
2023-05-12T19:18:53.270Z,5.98
2023-05-12T19:21:19.856Z,7.13
2023-05-12T19:23:46.391Z,6.55
2023-05-12T19:26:12.971Z,7.40
2023-05-12T19:28:39.534Z,7.77
2023-05-12T19:31:06.083Z,7.87
2023-05-12T19:33:32.626Z,7.93
2023-05-12T19:35:59.182Z,8.02
2023-05-12T19:38:25.721Z,7.49
2023-05-12T19:40:52.252Z,7.92
2023-05-12T19:43:18.831Z,7.40
2023-05-12T19:45:45.433Z,7.84
2023-05-12T19:48:12.047Z,7.84
2023-05-12T19:50:38.672Z,7.60
2023-05-12T19:53:05.205Z,8.08
2023-05-12T19:55:31.788Z,7.31
2023-05-12T19:57:58.336Z,5.91
2023-05-12T20:00:24.902Z,6.17
2023-05-12T20:02:51.512Z,6.08
2023-05-12T20:05:18.201Z,6.03
2023-05-12T20:07:44.807Z,6.01
2023-05-12T20:10:11.337Z,6.46
2023-05-12T20:12:37.872Z,6.63
2023-05-12T20:15:04.427Z,6.35
2023-05-12T20:17:31.118Z,6.52
2023-05-12T20:19:57.707Z,6.94
2023-05-12T20:22:24.258Z,6.80
2023-05-12T20:24:50.833Z,6.87
2023-05-12T20:27:17.378Z,6.76
2023-05-12T20:29:43.919Z,6.70
2023-05-12T20:32:11.500Z,7.04
2023-05-12T20:34:39.492Z,6.56
2023-05-12T20:37:06.031Z,6.83
2023-05-12T20:39:32.574Z,6.85
2023-05-12T20:41:59.116Z,6.81
2023-05-12T20:44:25.653Z,6.76
2023-05-12T20:46:52.282Z,7.04
2023-05-12T20:49:18.919Z,6.96
2023-05-12T20:51:45.476Z,6.76
2023-05-12T20:54:12.003Z,6.80
2023-05-12T20:56:38.540Z,6.51
2023-05-12T20:59:05.092Z,6.75
2023-05-12T21:01:31.649Z,6.81
2023-05-12T21:03:58.280Z,6.75
2023-05-12T21:06:24.881Z,6.48
2023-05-12T21:08:51.429Z,6.62
2023-05-12T21:11:17.957Z,6.44
2023-05-12T21:13:44.490Z,6.51
2023-05-12T21:16:11.122Z,6.24
2023-05-12T21:18:37.772Z,6.12
2023-05-12T21:21:04.322Z,5.97
2023-05-12T21:23:30.861Z,6.16
2023-05-12T21:25:57.405Z,6.53
2023-05-12T21:28:23.943Z,6.06
2023-05-12T21:30:50.488Z,6.08
2023-05-12T21:33:17.036Z,6.06
2023-05-12T21:35:43.586Z,6.17
2023-05-12T21:38:10.173Z,6.25
2023-05-12T21:40:36.745Z,6.39
2023-05-12T21:43:03.280Z,6.21
2023-05-12T21:45:29.820Z,6.15
2023-05-12T21:47:56.446Z,6.11
2023-05-12T21:50:23.179Z,6.18
2023-05-12T21:52:49.849Z,5.97
2023-05-12T21:55:16.400Z,6.16
2023-05-12T21:57:42.947Z,6.09
2023-05-12T22:00:09.497Z,5.84
2023-05-12T22:02:36.146Z,6.07
2023-05-12T22:05:02.705Z,6.01
2023-05-12T22:07:29.231Z,5.78
2023-05-12T22:09:55.774Z,6.27
2023-05-12T22:12:22.302Z,5.96
2023-05-12T22:14:48.921Z,5.71
2023-05-12T22:17:15.463Z,5.81
2023-05-12T22:19:41.988Z,5.71
2023-05-12T22:22:08.592Z,5.66
2023-05-12T22:24:35.135Z,5.69
2023-05-12T22:27:01.667Z,5.77
2023-05-12T22:29:28.212Z,5.41
2023-05-12T22:31:54.740Z,5.44
2023-05-12T22:34:21.316Z,5.36
2023-05-12T22:36:47.862Z,5.75
2023-05-12T22:39:14.419Z,5.44
2023-05-12T22:41:40.973Z,5.33
2023-05-12T22:44:07.502Z,5.30
2023-05-12T22:46:34.075Z,5.48
2023-05-12T22:49:00.664Z,5.27
2023-05-12T22:51:27.210Z,5.21
2023-05-12T22:53:53.741Z,5.45
2023-05-12T22:56:20.312Z,5.26
2023-05-12T22:58:46.942Z,5.27
2023-05-12T23:01:13.539Z,5.34
2023-05-12T23:03:40.144Z,5.23
2023-05-12T23:06:06.681Z,5.37
2023-05-12T23:08:33.210Z,5.29
2023-05-12T23:10:59.749Z,5.17
2023-05-12T23:13:26.300Z,5.14
2023-05-12T23:15:52.842Z,5.34
2023-05-12T23:18:19.369Z,5.21
2023-05-12T23:20:45.900Z,5.19
2023-05-12T23:23:12.449Z,5.16
2023-05-12T23:25:39.002Z,4.87
2023-05-12T23:28:05.548Z,4.88
2023-05-12T23:30:32.205Z,4.84
2023-05-12T23:32:58.852Z,4.71
2023-05-12T23:35:25.447Z,4.75
2023-05-12T23:37:51.983Z,4.98
2023-05-12T23:40:18.626Z,5.09
2023-05-12T23:42:45.218Z,4.85
2023-05-12T23:45:11.758Z,4.45
2023-05-12T23:47:38.349Z,4.84
2023-05-12T23:50:04.976Z,4.86
2023-05-12T23:52:31.508Z,4.36
2023-05-12T23:54:58.043Z,4.57
2023-05-12T23:57:24.602Z,4.30
2023-05-12T23:59:51.131Z,4.38
